sensor_id;sensor_type;location;lat;lon;timestamp;P1;durP1;ratioP1;P2;durP2;ratioP2
39370;SDS011;25099;51.946;4.838;2022-07-24T00:01:40;14.48;;;13.10;;
39370;SDS011;25099;51.946;4.838;2022-07-24T00:04:06;16.42;;;14.70;;
39370;SDS011;25099;51.946;4.838;2022-07-24T00:06:32;16.13;;;14.27;;
39370;SDS011;25099;51.946;4.838;2022-07-24T00:08:57;15.80;;;14.40;;
39370;SDS011;25099;51.946;4.838;2022-07-24T00:11:23;16.60;;;15.07;;
39370;SDS011;25099;51.946;4.838;2022-07-24T00:13:49;15.77;;;14.00;;
39370;SDS011;25099;51.946;4.838;2022-07-24T00:16:15;17.63;;;16.13;;
39370;SDS011;25099;51.946;4.838;2022-07-24T00:18:40;15.30;;;13.80;;
39370;SDS011;25099;51.946;4.838;2022-07-24T00:21:06;15.52;;;14.13;;
39370;SDS011;25099;51.946;4.838;2022-07-24T00:23:31;14.88;;;13.48;;
39370;SDS011;25099;51.946;4.838;2022-07-24T00:25:57;15.35;;;14.05;;
39370;SDS011;25099;51.946;4.838;2022-07-24T00:28:23;15.15;;;13.85;;
39370;SDS011;25099;51.946;4.838;2022-07-24T00:30:49;16.00;;;14.55;;
39370;SDS011;25099;51.946;4.838;2022-07-24T00:33:14;15.98;;;14.45;;
39370;SDS011;25099;51.946;4.838;2022-07-24T00:35:40;16.17;;;14.88;;
39370;SDS011;25099;51.946;4.838;2022-07-24T00:38:06;17.77;;;16.00;;
39370;SDS011;25099;51.946;4.838;2022-07-24T00:40:31;17.25;;;14.68;;
39370;SDS011;25099;51.946;4.838;2022-07-24T00:42:57;17.73;;;16.10;;
39370;SDS011;25099;51.946;4.838;2022-07-24T00:45:23;16.65;;;15.05;;
39370;SDS011;25099;51.946;4.838;2022-07-24T00:47:49;16.83;;;15.25;;
39370;SDS011;25099;51.946;4.838;2022-07-24T00:50:15;17.67;;;15.95;;
39370;SDS011;25099;51.946;4.838;2022-07-24T00:52:41;18.85;;;17.00;;
39370;SDS011;25099;51.946;4.838;2022-07-24T00:55:08;20.73;;;16.95;;
39370;SDS011;25099;51.946;4.838;2022-07-24T00:57:34;18.55;;;16.65;;
39370;SDS011;25099;51.946;4.838;2022-07-24T01:00:00;25.05;;;18.60;;
39370;SDS011;25099;51.946;4.838;2022-07-24T01:02:26;18.83;;;17.23;;
39370;SDS011;25099;51.946;4.838;2022-07-24T01:04:52;19.27;;;17.38;;
39370;SDS011;25099;51.946;4.838;2022-07-24T01:07:18;22.10;;;19.80;;
39370;SDS011;25099;51.946;4.838;2022-07-24T01:09:43;21.45;;;19.25;;
39370;SDS011;25099;51.946;4.838;2022-07-24T01:12:09;23.40;;;19.30;;
39370;SDS011;25099;51.946;4.838;2022-07-24T01:14:35;23.80;;;21.08;;
39370;SDS011;25099;51.946;4.838;2022-07-24T01:17:00;20.73;;;18.58;;
39370;SDS011;25099;51.946;4.838;2022-07-24T01:19:26;23.42;;;21.02;;
39370;SDS011;25099;51.946;4.838;2022-07-24T01:21:52;22.38;;;20.10;;
39370;SDS011;25099;51.946;4.838;2022-07-24T01:24:19;24.95;;;22.02;;
39370;SDS011;25099;51.946;4.838;2022-07-24T01:26:46;33.67;;;25.05;;
39370;SDS011;25099;51.946;4.838;2022-07-24T01:29:12;27.38;;;24.35;;
39370;SDS011;25099;51.946;4.838;2022-07-24T01:31:38;28.33;;;24.25;;
39370;SDS011;25099;51.946;4.838;2022-07-24T01:34:04;27.90;;;25.05;;
39370;SDS011;25099;51.946;4.838;2022-07-24T01:36:30;28.70;;;22.77;;
39370;SDS011;25099;51.946;4.838;2022-07-24T01:38:55;33.53;;;24.98;;
39370;SDS011;25099;51.946;4.838;2022-07-24T01:41:21;26.90;;;23.25;;
39370;SDS011;25099;51.946;4.838;2022-07-24T01:43:47;27.83;;;23.17;;
39370;SDS011;25099;51.946;4.838;2022-07-24T01:46:13;28.02;;;21.75;;
39370;SDS011;25099;51.946;4.838;2022-07-24T01:48:39;27.02;;;22.10;;
39370;SDS011;25099;51.946;4.838;2022-07-24T01:51:07;28.80;;;24.20;;
39370;SDS011;25099;51.946;4.838;2022-07-24T01:53:33;32.13;;;22.98;;
39370;SDS011;25099;51.946;4.838;2022-07-24T01:55:58;28.50;;;24.10;;
39370;SDS011;25099;51.946;4.838;2022-07-24T01:58:24;31.77;;;23.27;;
39370;SDS011;25099;51.946;4.838;2022-07-24T02:00:50;30.45;;;23.58;;
39370;SDS011;25099;51.946;4.838;2022-07-24T02:03:15;28.65;;;21.52;;
39370;SDS011;25099;51.946;4.838;2022-07-24T02:05:41;29.58;;;23.92;;
39370;SDS011;25099;51.946;4.838;2022-07-24T02:08:07;29.65;;;23.02;;
39370;SDS011;25099;51.946;4.838;2022-07-24T02:10:32;34.92;;;25.90;;
39370;SDS011;25099;51.946;4.838;2022-07-24T02:12:58;33.58;;;27.60;;
39370;SDS011;25099;51.946;4.838;2022-07-24T02:15:24;30.77;;;24.60;;
39370;SDS011;25099;51.946;4.838;2022-07-24T02:17:51;33.70;;;24.70;;
39370;SDS011;25099;51.946;4.838;2022-07-24T02:20:18;33.85;;;23.30;;
39370;SDS011;25099;51.946;4.838;2022-07-24T02:22:44;28.67;;;24.05;;
39370;SDS011;25099;51.946;4.838;2022-07-24T02:25:10;30.52;;;22.60;;
39370;SDS011;25099;51.946;4.838;2022-07-24T02:27:36;30.77;;;23.50;;
39370;SDS011;25099;51.946;4.838;2022-07-24T02:30:03;25.33;;;21.13;;
39370;SDS011;25099;51.946;4.838;2022-07-24T02:32:30;33.55;;;23.85;;
39370;SDS011;25099;51.946;4.838;2022-07-24T02:34:56;25.63;;;21.25;;
39370;SDS011;25099;51.946;4.838;2022-07-24T02:37:21;28.52;;;22.48;;
39370;SDS011;25099;51.946;4.838;2022-07-24T02:39:47;26.88;;;22.38;;
39370;SDS011;25099;51.946;4.838;2022-07-24T02:42:13;28.02;;;22.42;;
39370;SDS011;25099;51.946;4.838;2022-07-24T02:44:38;25.05;;;21.45;;
39370;SDS011;25099;51.946;4.838;2022-07-24T02:47:04;25.42;;;20.23;;
39370;SDS011;25099;51.946;4.838;2022-07-24T02:49:30;33.20;;;22.55;;
39370;SDS011;25099;51.946;4.838;2022-07-24T02:51:55;27.55;;;22.60;;
39370;SDS011;25099;51.946;4.838;2022-07-24T02:54:24;34.72;;;23.65;;
39370;SDS011;25099;51.946;4.838;2022-07-24T02:56:49;24.23;;;20.02;;
39370;SDS011;25099;51.946;4.838;2022-07-24T02:59:15;23.77;;;20.23;;
39370;SDS011;25099;51.946;4.838;2022-07-24T03:01:40;28.52;;;23.17;;
39370;SDS011;25099;51.946;4.838;2022-07-24T03:04:06;31.13;;;21.58;;
39370;SDS011;25099;51.946;4.838;2022-07-24T03:06:31;22.45;;;20.05;;
39370;SDS011;25099;51.946;4.838;2022-07-24T03:08:58;26.02;;;20.70;;
39370;SDS011;25099;51.946;4.838;2022-07-24T03:11:23;23.52;;;20.40;;
39370;SDS011;25099;51.946;4.838;2022-07-24T03:13:49;28.40;;;21.48;;
39370;SDS011;25099;51.946;4.838;2022-07-24T03:16:14;27.77;;;21.65;;
39370;SDS011;25099;51.946;4.838;2022-07-24T03:18:41;31.15;;;23.33;;
39370;SDS011;25099;51.946;4.838;2022-07-24T03:21:11;31.15;;;20.73;;
39370;SDS011;25099;51.946;4.838;2022-07-24T03:23:38;26.85;;;21.02;;
39370;SDS011;25099;51.946;4.838;2022-07-24T03:26:04;24.20;;;19.10;;
39370;SDS011;25099;51.946;4.838;2022-07-24T03:28:29;25.23;;;18.88;;
39370;SDS011;25099;51.946;4.838;2022-07-24T03:30:55;25.85;;;17.58;;
39370;SDS011;25099;51.946;4.838;2022-07-24T03:33:21;22.20;;;16.45;;
39370;SDS011;25099;51.946;4.838;2022-07-24T03:35:46;21.38;;;15.63;;
39370;SDS011;25099;51.946;4.838;2022-07-24T03:38:12;19.15;;;16.38;;
39370;SDS011;25099;51.946;4.838;2022-07-24T03:40:38;20.55;;;16.35;;
39370;SDS011;25099;51.946;4.838;2022-07-24T03:43:03;23.48;;;16.10;;
39370;SDS011;25099;51.946;4.838;2022-07-24T03:45:29;17.67;;;15.73;;
39370;SDS011;25099;51.946;4.838;2022-07-24T03:47:54;19.45;;;15.05;;
39370;SDS011;25099;51.946;4.838;2022-07-24T03:50:20;17.55;;;14.82;;
39370;SDS011;25099;51.946;4.838;2022-07-24T03:52:46;18.55;;;15.43;;
39370;SDS011;25099;51.946;4.838;2022-07-24T03:55:11;19.92;;;17.45;;
39370;SDS011;25099;51.946;4.838;2022-07-24T03:57:37;24.15;;;17.48;;
39370;SDS011;25099;51.946;4.838;2022-07-24T04:00:03;23.35;;;17.55;;
39370;SDS011;25099;51.946;4.838;2022-07-24T04:02:30;22.38;;;16.42;;
39370;SDS011;25099;51.946;4.838;2022-07-24T04:04:56;23.63;;;14.75;;
39370;SDS011;25099;51.946;4.838;2022-07-24T04:07:21;18.95;;;15.63;;
39370;SDS011;25099;51.946;4.838;2022-07-24T04:09:47;17.40;;;14.93;;
39370;SDS011;25099;51.946;4.838;2022-07-24T04:12:12;15.18;;;12.98;;
39370;SDS011;25099;51.946;4.838;2022-07-24T04:14:38;15.07;;;13.40;;
39370;SDS011;25099;51.946;4.838;2022-07-24T04:17:04;14.68;;;12.90;;
39370;SDS011;25099;51.946;4.838;2022-07-24T04:19:29;19.52;;;12.32;;
39370;SDS011;25099;51.946;4.838;2022-07-24T04:21:55;15.30;;;11.32;;
39370;SDS011;25099;51.946;4.838;2022-07-24T04:24:20;13.23;;;11.13;;
39370;SDS011;25099;51.946;4.838;2022-07-24T04:26:46;12.35;;;10.82;;
39370;SDS011;25099;51.946;4.838;2022-07-24T04:29:12;12.18;;;9.73;;
39370;SDS011;25099;51.946;4.838;2022-07-24T04:31:37;12.45;;;9.85;;
39370;SDS011;25099;51.946;4.838;2022-07-24T04:34:03;13.13;;;9.80;;
39370;SDS011;25099;51.946;4.838;2022-07-24T04:36:29;12.38;;;9.63;;
39370;SDS011;25099;51.946;4.838;2022-07-24T04:38:54;10.25;;;9.20;;
39370;SDS011;25099;51.946;4.838;2022-07-24T04:41:20;11.95;;;8.82;;
39370;SDS011;25099;51.946;4.838;2022-07-24T04:43:45;8.43;;;7.55;;
39370;SDS011;25099;51.946;4.838;2022-07-24T04:46:11;9.95;;;7.68;;
39370;SDS011;25099;51.946;4.838;2022-07-24T04:48:37;8.02;;;7.32;;
39370;SDS011;25099;51.946;4.838;2022-07-24T04:51:02;8.63;;;7.80;;
39370;SDS011;25099;51.946;4.838;2022-07-24T04:53:28;8.35;;;7.03;;
39370;SDS011;25099;51.946;4.838;2022-07-24T04:55:55;13.15;;;7.53;;
39370;SDS011;25099;51.946;4.838;2022-07-24T04:58:21;10.82;;;7.65;;
39370;SDS011;25099;51.946;4.838;2022-07-24T05:00:47;9.18;;;7.30;;
39370;SDS011;25099;51.946;4.838;2022-07-24T05:03:13;9.82;;;7.53;;
39370;SDS011;25099;51.946;4.838;2022-07-24T05:05:38;13.48;;;7.85;;
39370;SDS011;25099;51.946;4.838;2022-07-24T05:08:04;6.43;;;5.82;;
39370;SDS011;25099;51.946;4.838;2022-07-24T05:10:29;8.88;;;6.28;;
39370;SDS011;25099;51.946;4.838;2022-07-24T05:12:55;6.75;;;6.10;;
39370;SDS011;25099;51.946;4.838;2022-07-24T05:15:20;6.22;;;5.65;;
39370;SDS011;25099;51.946;4.838;2022-07-24T05:17:46;7.78;;;5.88;;
39370;SDS011;25099;51.946;4.838;2022-07-24T05:20:12;9.88;;;5.72;;
39370;SDS011;25099;51.946;4.838;2022-07-24T05:22:39;6.38;;;5.10;;
39370;SDS011;25099;51.946;4.838;2022-07-24T05:25:04;10.20;;;5.70;;
39370;SDS011;25099;51.946;4.838;2022-07-24T05:27:30;5.25;;;4.75;;
39370;SDS011;25099;51.946;4.838;2022-07-24T05:29:56;6.45;;;5.25;;
39370;SDS011;25099;51.946;4.838;2022-07-24T05:32:22;5.47;;;4.97;;
39370;SDS011;25099;51.946;4.838;2022-07-24T05:34:47;7.15;;;5.18;;
39370;SDS011;25099;51.946;4.838;2022-07-24T05:37:13;7.25;;;5.38;;
39370;SDS011;25099;51.946;4.838;2022-07-24T05:39:38;5.30;;;4.80;;
39370;SDS011;25099;51.946;4.838;2022-07-24T05:42:04;5.80;;;4.45;;
39370;SDS011;25099;51.946;4.838;2022-07-24T05:44:30;5.45;;;4.93;;
39370;SDS011;25099;51.946;4.838;2022-07-24T05:46:56;7.65;;;5.05;;
39370;SDS011;25099;51.946;4.838;2022-07-24T05:49:21;6.28;;;4.85;;
39370;SDS011;25099;51.946;4.838;2022-07-24T05:51:47;8.27;;;5.50;;
39370;SDS011;25099;51.946;4.838;2022-07-24T05:54:13;7.22;;;5.15;;
39370;SDS011;25099;51.946;4.838;2022-07-24T05:56:38;5.10;;;4.63;;
39370;SDS011;25099;51.946;4.838;2022-07-24T05:59:04;5.97;;;5.22;;
39370;SDS011;25099;51.946;4.838;2022-07-24T06:01:29;6.05;;;4.60;;
39370;SDS011;25099;51.946;4.838;2022-07-24T06:03:55;5.97;;;4.75;;
39370;SDS011;25099;51.946;4.838;2022-07-24T06:06:21;5.85;;;5.35;;
39370;SDS011;25099;51.946;4.838;2022-07-24T06:08:46;5.35;;;4.93;;
39370;SDS011;25099;51.946;4.838;2022-07-24T06:11:12;6.20;;;5.10;;
39370;SDS011;25099;51.946;4.838;2022-07-24T06:13:37;5.80;;;5.20;;
39370;SDS011;25099;51.946;4.838;2022-07-24T06:16:03;5.68;;;4.90;;
39370;SDS011;25099;51.946;4.838;2022-07-24T06:18:29;5.93;;;5.03;;
39370;SDS011;25099;51.946;4.838;2022-07-24T06:20:55;5.78;;;5.07;;
39370;SDS011;25099;51.946;4.838;2022-07-24T06:23:20;6.50;;;4.93;;
39370;SDS011;25099;51.946;4.838;2022-07-24T06:25:46;9.60;;;6.28;;
39370;SDS011;25099;51.946;4.838;2022-07-24T06:28:11;7.00;;;6.15;;
39370;SDS011;25099;51.946;4.838;2022-07-24T06:30:37;12.45;;;6.50;;
39370;SDS011;25099;51.946;4.838;2022-07-24T06:33:04;6.30;;;5.70;;
39370;SDS011;25099;51.946;4.838;2022-07-24T06:35:29;6.05;;;5.55;;
39370;SDS011;25099;51.946;4.838;2022-07-24T06:37:57;8.70;;;6.32;;
39370;SDS011;25099;51.946;4.838;2022-07-24T06:40:24;7.75;;;6.03;;
39370;SDS011;25099;51.946;4.838;2022-07-24T06:42:50;6.30;;;5.70;;
39370;SDS011;25099;51.946;4.838;2022-07-24T06:45:16;8.90;;;6.10;;
39370;SDS011;25099;51.946;4.838;2022-07-24T06:47:42;6.70;;;5.53;;
39370;SDS011;25099;51.946;4.838;2022-07-24T06:50:08;6.07;;;5.03;;
39370;SDS011;25099;51.946;4.838;2022-07-24T06:52:35;7.00;;;5.53;;
39370;SDS011;25099;51.946;4.838;2022-07-24T06:55:01;5.97;;;5.38;;
39370;SDS011;25099;51.946;4.838;2022-07-24T06:57:26;7.35;;;5.32;;
39370;SDS011;25099;51.946;4.838;2022-07-24T06:59:52;5.07;;;4.55;;
39370;SDS011;25099;51.946;4.838;2022-07-24T07:02:19;5.40;;;5.00;;
39370;SDS011;25099;51.946;4.838;2022-07-24T07:04:45;8.07;;;4.90;;
39370;SDS011;25099;51.946;4.838;2022-07-24T07:07:10;7.22;;;4.93;;
39370;SDS011;25099;51.946;4.838;2022-07-24T07:09:36;8.00;;;4.80;;
39370;SDS011;25099;51.946;4.838;2022-07-24T07:12:05;4.72;;;4.32;;
39370;SDS011;25099;51.946;4.838;2022-07-24T07:14:31;8.88;;;4.57;;
39370;SDS011;25099;51.946;4.838;2022-07-24T07:16:56;4.65;;;4.13;;
39370;SDS011;25099;51.946;4.838;2022-07-24T07:19:22;4.15;;;3.47;;
39370;SDS011;25099;51.946;4.838;2022-07-24T07:21:47;6.90;;;4.05;;
39370;SDS011;25099;51.946;4.838;2022-07-24T07:24:13;5.13;;;3.75;;
39370;SDS011;25099;51.946;4.838;2022-07-24T07:26:39;4.38;;;3.97;;
39370;SDS011;25099;51.946;4.838;2022-07-24T07:29:04;5.55;;;3.60;;
39370;SDS011;25099;51.946;4.838;2022-07-24T07:31:33;5.40;;;3.60;;
39370;SDS011;25099;51.946;4.838;2022-07-24T07:33:58;3.60;;;3.30;;
39370;SDS011;25099;51.946;4.838;2022-07-24T07:36:24;3.78;;;3.40;;
39370;SDS011;25099;51.946;4.838;2022-07-24T07:38:50;4.63;;;2.97;;
39370;SDS011;25099;51.946;4.838;2022-07-24T07:41:16;5.18;;;3.75;;
39370;SDS011;25099;51.946;4.838;2022-07-24T07:43:44;5.60;;;3.63;;
39370;SDS011;25099;51.946;4.838;2022-07-24T07:46:12;4.38;;;3.08;;
39370;SDS011;25099;51.946;4.838;2022-07-24T07:48:38;4.45;;;3.88;;
39370;SDS011;25099;51.946;4.838;2022-07-24T07:51:04;3.40;;;3.10;;
39370;SDS011;25099;51.946;4.838;2022-07-24T07:53:29;2.92;;;2.70;;
39370;SDS011;25099;51.946;4.838;2022-07-24T07:55:55;3.47;;;3.00;;
39370;SDS011;25099;51.946;4.838;2022-07-24T07:58:21;4.75;;;3.28;;
39370;SDS011;25099;51.946;4.838;2022-07-24T08:00:47;5.32;;;3.33;;
39370;SDS011;25099;51.946;4.838;2022-07-24T08:03:13;3.80;;;2.83;;
39370;SDS011;25099;51.946;4.838;2022-07-24T08:05:39;4.13;;;2.80;;
39370;SDS011;25099;51.946;4.838;2022-07-24T08:08:04;10.32;;;2.95;;
39370;SDS011;25099;51.946;4.838;2022-07-24T08:10:30;6.65;;;3.30;;
39370;SDS011;25099;51.946;4.838;2022-07-24T08:12:56;2.90;;;2.63;;
39370;SDS011;25099;51.946;4.838;2022-07-24T08:15:22;3.70;;;3.00;;
39370;SDS011;25099;51.946;4.838;2022-07-24T08:17:51;4.57;;;3.05;;
39370;SDS011;25099;51.946;4.838;2022-07-24T08:20:17;3.63;;;2.70;;
39370;SDS011;25099;51.946;4.838;2022-07-24T08:22:44;3.20;;;2.75;;
39370;SDS011;25099;51.946;4.838;2022-07-24T08:25:13;3.83;;;2.85;;
39370;SDS011;25099;51.946;4.838;2022-07-24T08:27:38;3.45;;;2.33;;
39370;SDS011;25099;51.946;4.838;2022-07-24T08:30:05;4.55;;;2.85;;
39370;SDS011;25099;51.946;4.838;2022-07-24T08:32:31;4.78;;;2.60;;
39370;SDS011;25099;51.946;4.838;2022-07-24T08:34:57;2.60;;;2.40;;
39370;SDS011;25099;51.946;4.838;2022-07-24T08:37:23;3.10;;;2.88;;
39370;SDS011;25099;51.946;4.838;2022-07-24T08:39:48;4.78;;;2.60;;
39370;SDS011;25099;51.946;4.838;2022-07-24T08:42:14;4.70;;;3.40;;
39370;SDS011;25099;51.946;4.838;2022-07-24T08:44:40;3.50;;;2.80;;
39370;SDS011;25099;51.946;4.838;2022-07-24T08:47:06;3.10;;;2.58;;
39370;SDS011;25099;51.946;4.838;2022-07-24T08:49:33;2.90;;;2.70;;
39370;SDS011;25099;51.946;4.838;2022-07-24T08:52:02;2.88;;;2.50;;
39370;SDS011;25099;51.946;4.838;2022-07-24T08:54:29;3.30;;;3.00;;
39370;SDS011;25099;51.946;4.838;2022-07-24T08:56:58;4.20;;;2.90;;
39370;SDS011;25099;51.946;4.838;2022-07-24T08:59:23;3.75;;;2.95;;
39370;SDS011;25099;51.946;4.838;2022-07-24T09:01:49;2.72;;;2.53;;
39370;SDS011;25099;51.946;4.838;2022-07-24T09:07:01;2.90;;;2.65;;
39370;SDS011;25099;51.946;4.838;2022-07-24T09:09:29;4.82;;;2.90;;
39370;SDS011;25099;51.946;4.838;2022-07-24T09:12:07;5.13;;;3.17;;
39370;SDS011;25099;51.946;4.838;2022-07-24T09:14:39;3.50;;;3.20;;
39370;SDS011;25099;51.946;4.838;2022-07-24T09:17:10;3.70;;;2.90;;
39370;SDS011;25099;51.946;4.838;2022-07-24T09:19:50;3.05;;;2.75;;
39370;SDS011;25099;51.946;4.838;2022-07-24T09:22:22;2.88;;;2.40;;
39370;SDS011;25099;51.946;4.838;2022-07-24T09:25:05;3.22;;;2.92;;
39370;SDS011;25099;51.946;4.838;2022-07-24T09:27:41;2.60;;;2.38;;
39370;SDS011;25099;51.946;4.838;2022-07-24T09:30:37;3.60;;;2.42;;
39370;SDS011;25099;51.946;4.838;2022-07-24T09:35:40;2.45;;;2.25;;
39370;SDS011;25099;51.946;4.838;2022-07-24T09:38:08;2.60;;;2.30;;
39370;SDS011;25099;51.946;4.838;2022-07-24T09:40:36;4.47;;;2.60;;
39370;SDS011;25099;51.946;4.838;2022-07-24T09:45:59;5.25;;;2.33;;
39370;SDS011;25099;51.946;4.838;2022-07-24T09:51:03;2.88;;;2.40;;
39370;SDS011;25099;51.946;4.838;2022-07-24T09:53:31;4.18;;;2.80;;
39370;SDS011;25099;51.946;4.838;2022-07-24T09:56:05;2.97;;;2.50;;
39370;SDS011;25099;51.946;4.838;2022-07-24T09:58:32;2.58;;;2.38;;
39370;SDS011;25099;51.946;4.838;2022-07-24T10:01:00;2.63;;;2.38;;
39370;SDS011;25099;51.946;4.838;2022-07-24T10:03:28;2.65;;;2.15;;
39370;SDS011;25099;51.946;4.838;2022-07-24T10:06:00;4.97;;;2.40;;
39370;SDS011;25099;51.946;4.838;2022-07-24T10:08:30;2.72;;;2.42;;
39370;SDS011;25099;51.946;4.838;2022-07-24T10:10:57;2.92;;;2.72;;
39370;SDS011;25099;51.946;4.838;2022-07-24T10:13:24;3.10;;;2.40;;
39370;SDS011;25099;51.946;4.838;2022-07-24T10:21:16;3.72;;;2.30;;
39370;SDS011;25099;51.946;4.838;2022-07-24T10:23:53;2.50;;;2.22;;
39370;SDS011;25099;51.946;4.838;2022-07-24T10:29:04;2.10;;;1.88;;
39370;SDS011;25099;51.946;4.838;2022-07-24T10:31:41;2.70;;;2.50;;
39370;SDS011;25099;51.946;4.838;2022-07-24T10:37:04;4.07;;;2.35;;
39370;SDS011;25099;51.946;4.838;2022-07-24T10:39:54;2.47;;;2.03;;
39370;SDS011;25099;51.946;4.838;2022-07-24T10:42:31;2.58;;;2.33;;
39370;SDS011;25099;51.946;4.838;2022-07-24T10:45:16;2.50;;;2.30;;
39370;SDS011;25099;51.946;4.838;2022-07-24T10:47:44;3.63;;;2.00;;
39370;SDS011;25099;51.946;4.838;2022-07-24T10:50:11;2.05;;;1.92;;
39370;SDS011;25099;51.946;4.838;2022-07-24T10:52:37;3.00;;;2.55;;
39370;SDS011;25099;51.946;4.838;2022-07-24T10:58:00;1.92;;;1.75;;
39370;SDS011;25099;51.946;4.838;2022-07-24T11:00:38;3.88;;;1.90;;
39370;SDS011;25099;51.946;4.838;2022-07-24T11:03:17;2.80;;;2.30;;
39370;SDS011;25099;51.946;4.838;2022-07-24T11:05:43;3.25;;;1.98;;
39370;SDS011;25099;51.946;4.838;2022-07-24T11:08:27;3.58;;;1.90;;
39370;SDS011;25099;51.946;4.838;2022-07-24T11:10:56;2.30;;;2.13;;
39370;SDS011;25099;51.946;4.838;2022-07-24T11:13:42;2.22;;;2.08;;
39370;SDS011;25099;51.946;4.838;2022-07-24T11:18:41;2.13;;;1.98;;
39370;SDS011;25099;51.946;4.838;2022-07-24T11:21:37;2.58;;;2.33;;
39370;SDS011;25099;51.946;4.838;2022-07-24T11:24:14;2.65;;;2.10;;
39370;SDS011;25099;51.946;4.838;2022-07-24T11:27:05;4.03;;;2.00;;
39370;SDS011;25099;51.946;4.838;2022-07-24T11:29:41;4.03;;;1.95;;
39370;SDS011;25099;51.946;4.838;2022-07-24T11:34:36;2.45;;;1.70;;
39370;SDS011;25099;51.946;4.838;2022-07-24T11:37:02;2.10;;;1.85;;
39370;SDS011;25099;51.946;4.838;2022-07-24T11:39:34;2.25;;;2.05;;
39370;SDS011;25099;51.946;4.838;2022-07-24T11:42:02;1.95;;;1.83;;
39370;SDS011;25099;51.946;4.838;2022-07-24T11:44:30;1.92;;;1.80;;
39370;SDS011;25099;51.946;4.838;2022-07-24T11:47:05;2.42;;;2.17;;
39370;SDS011;25099;51.946;4.838;2022-07-24T11:52:33;3.05;;;2.10;;
39370;SDS011;25099;51.946;4.838;2022-07-24T11:55:05;2.80;;;1.98;;
39370;SDS011;25099;51.946;4.838;2022-07-24T11:57:33;2.20;;;2.00;;
39370;SDS011;25099;51.946;4.838;2022-07-24T12:00:03;3.42;;;2.00;;
39370;SDS011;25099;51.946;4.838;2022-07-24T12:02:36;3.25;;;2.15;;
39370;SDS011;25099;51.946;4.838;2022-07-24T12:05:02;1.83;;;1.73;;
39370;SDS011;25099;51.946;4.838;2022-07-24T12:07:28;4.55;;;2.10;;
39370;SDS011;25099;51.946;4.838;2022-07-24T12:15:05;2.47;;;2.28;;
39370;SDS011;25099;51.946;4.838;2022-07-24T12:17:34;2.58;;;2.38;;
39370;SDS011;25099;51.946;4.838;2022-07-24T12:20:20;5.45;;;2.10;;
39370;SDS011;25099;51.946;4.838;2022-07-24T12:22:46;2.20;;;1.95;;
39370;SDS011;25099;51.946;4.838;2022-07-24T12:25:12;2.25;;;2.08;;
39370;SDS011;25099;51.946;4.838;2022-07-24T12:27:43;1.92;;;1.80;;
39370;SDS011;25099;51.946;4.838;2022-07-24T12:30:21;3.13;;;2.22;;
39370;SDS011;25099;51.946;4.838;2022-07-24T12:32:54;4.07;;;2.03;;
39370;SDS011;25099;51.946;4.838;2022-07-24T12:38:22;2.33;;;1.77;;
39370;SDS011;25099;51.946;4.838;2022-07-24T12:40:51;3.63;;;1.53;;
39370;SDS011;25099;51.946;4.838;2022-07-24T12:43:25;2.20;;;1.70;;
39370;SDS011;25099;51.946;4.838;2022-07-24T12:46:08;1.90;;;1.80;;
39370;SDS011;25099;51.946;4.838;2022-07-24T12:48:38;3.83;;;1.83;;
39370;SDS011;25099;51.946;4.838;2022-07-24T12:51:08;1.98;;;1.75;;
39370;SDS011;25099;51.946;4.838;2022-07-24T12:53:36;2.15;;;2.00;;
39370;SDS011;25099;51.946;4.838;2022-07-24T12:56:08;2.30;;;2.10;;
39370;SDS011;25099;51.946;4.838;2022-07-24T13:01:14;2.08;;;1.88;;
39370;SDS011;25099;51.946;4.838;2022-07-24T13:03:40;3.90;;;1.92;;
39370;SDS011;25099;51.946;4.838;2022-07-24T13:06:05;12.13;;;2.17;;
39370;SDS011;25099;51.946;4.838;2022-07-24T13:08:31;5.57;;;1.77;;
39370;SDS011;25099;51.946;4.838;2022-07-24T13:10:57;3.88;;;2.42;;
39370;SDS011;25099;51.946;4.838;2022-07-24T13:13:22;2.33;;;2.13;;
39370;SDS011;25099;51.946;4.838;2022-07-24T13:15:51;2.17;;;2.00;;
39370;SDS011;25099;51.946;4.838;2022-07-24T13:18:16;4.43;;;2.03;;
39370;SDS011;25099;51.946;4.838;2022-07-24T13:20:42;4.28;;;2.22;;
39370;SDS011;25099;51.946;4.838;2022-07-24T13:23:10;2.90;;;2.38;;
39370;SDS011;25099;51.946;4.838;2022-07-24T13:25:36;1.92;;;1.80;;
39370;SDS011;25099;51.946;4.838;2022-07-24T13:28:09;4.72;;;2.42;;
39370;SDS011;25099;51.946;4.838;2022-07-24T13:30:35;4.13;;;2.42;;
39370;SDS011;25099;51.946;4.838;2022-07-24T13:33:00;3.85;;;2.00;;
39370;SDS011;25099;51.946;4.838;2022-07-24T13:35:26;2.58;;;2.38;;
39370;SDS011;25099;51.946;4.838;2022-07-24T13:37:51;2.00;;;1.90;;
39370;SDS011;25099;51.946;4.838;2022-07-24T13:40:18;2.88;;;2.10;;
39370;SDS011;25099;51.946;4.838;2022-07-24T13:42:43;1.88;;;1.77;;
39370;SDS011;25099;51.946;4.838;2022-07-24T13:45:09;3.20;;;2.13;;
39370;SDS011;25099;51.946;4.838;2022-07-24T13:47:35;2.45;;;2.08;;
39370;SDS011;25099;51.946;4.838;2022-07-24T13:50:01;2.72;;;2.45;;
39370;SDS011;25099;51.946;4.838;2022-07-24T13:52:27;2.90;;;1.90;;
39370;SDS011;25099;51.946;4.838;2022-07-24T13:54:52;5.20;;;2.10;;
39370;SDS011;25099;51.946;4.838;2022-07-24T13:57:18;3.03;;;2.30;;
39370;SDS011;25099;51.946;4.838;2022-07-24T13:59:43;2.75;;;2.33;;
39370;SDS011;25099;51.946;4.838;2022-07-24T14:02:09;2.75;;;1.88;;
39370;SDS011;25099;51.946;4.838;2022-07-24T14:04:35;2.50;;;2.30;;
39370;SDS011;25099;51.946;4.838;2022-07-24T14:07:00;4.07;;;2.50;;
39370;SDS011;25099;51.946;4.838;2022-07-24T14:09:26;4.95;;;2.03;;
39370;SDS011;25099;51.946;4.838;2022-07-24T14:11:53;5.88;;;2.38;;
39370;SDS011;25099;51.946;4.838;2022-07-24T14:14:19;3.08;;;2.08;;
39370;SDS011;25099;51.946;4.838;2022-07-24T14:16:45;2.55;;;2.30;;
39370;SDS011;25099;51.946;4.838;2022-07-24T14:19:11;2.10;;;1.83;;
39370;SDS011;25099;51.946;4.838;2022-07-24T14:21:36;4.13;;;2.45;;
39370;SDS011;25099;51.946;4.838;2022-07-24T14:24:03;2.15;;;1.95;;
39370;SDS011;25099;51.946;4.838;2022-07-24T14:26:29;2.40;;;2.20;;
39370;SDS011;25099;51.946;4.838;2022-07-24T14:28:55;2.42;;;2.03;;
39370;SDS011;25099;51.946;4.838;2022-07-24T14:31:21;2.13;;;1.92;;
39370;SDS011;25099;51.946;4.838;2022-07-24T14:33:46;1.95;;;1.83;;
39370;SDS011;25099;51.946;4.838;2022-07-24T14:36:12;2.33;;;2.13;;
39370;SDS011;25099;51.946;4.838;2022-07-24T14:38:37;1.77;;;1.67;;
39370;SDS011;25099;51.946;4.838;2022-07-24T14:41:03;4.90;;;2.60;;
39370;SDS011;25099;51.946;4.838;2022-07-24T14:43:28;2.58;;;2.20;;
39370;SDS011;25099;51.946;4.838;2022-07-24T14:45:54;3.72;;;2.30;;
39370;SDS011;25099;51.946;4.838;2022-07-24T14:48:20;2.53;;;2.33;;
39370;SDS011;25099;51.946;4.838;2022-07-24T14:50:45;2.30;;;2.15;;
39370;SDS011;25099;51.946;4.838;2022-07-24T14:53:11;2.95;;;2.00;;
39370;SDS011;25099;51.946;4.838;2022-07-24T14:55:36;1.80;;;1.70;;
39370;SDS011;25099;51.946;4.838;2022-07-24T14:58:02;2.50;;;2.30;;
39370;SDS011;25099;51.946;4.838;2022-07-24T15:00:28;2.42;;;1.88;;
39370;SDS011;25099;51.946;4.838;2022-07-24T15:02:54;1.92;;;1.83;;
39370;SDS011;25099;51.946;4.838;2022-07-24T15:05:20;2.20;;;1.90;;
39370;SDS011;25099;51.946;4.838;2022-07-24T15:07:47;2.25;;;2.00;;
39370;SDS011;25099;51.946;4.838;2022-07-24T15:10:12;2.10;;;1.90;;
39370;SDS011;25099;51.946;4.838;2022-07-24T15:12:38;2.58;;;2.10;;
39370;SDS011;25099;51.946;4.838;2022-07-24T15:15:04;2.17;;;1.98;;
39370;SDS011;25099;51.946;4.838;2022-07-24T15:17:29;1.90;;;1.80;;
39370;SDS011;25099;51.946;4.838;2022-07-24T15:19:55;1.95;;;1.40;;
39370;SDS011;25099;51.946;4.838;2022-07-24T15:22:21;3.15;;;1.50;;